createdAt,value
2023-04-16T00:00:18.901Z,94.68
2023-04-16T00:01:18.942Z,94.58
2023-04-16T00:02:19.070Z,94.68
2023-04-16T00:03:18.996Z,94.68
2023-04-16T00:04:18.995Z,94.58
2023-04-16T00:05:18.886Z,94.58
2023-04-16T00:06:18.844Z,94.58
2023-04-16T00:07:18.857Z,94.58
2023-04-16T00:08:18.817Z,94.48
2023-04-16T00:09:19.821Z,94.48
2023-04-16T00:10:19.781Z,94.37
2023-04-16T00:11:18.818Z,94.27
2023-04-16T00:12:18.924Z,94.27
2023-04-16T00:13:18.786Z,94.17
2023-04-16T00:14:18.754Z,94.17
2023-04-16T00:15:18.766Z,94.17
2023-04-16T00:16:18.822Z,94.27
2023-04-16T00:17:18.801Z,94.27
2023-04-16T00:18:18.720Z,94.17
2023-04-16T00:19:18.752Z,94.17
2023-04-16T00:20:18.696Z,94.07
2023-04-16T00:21:18.701Z,94.07
2023-04-16T00:22:18.676Z,94.17
2023-04-16T00:23:18.714Z,94.27
2023-04-16T00:24:18.661Z,94.37
2023-04-16T00:25:18.688Z,94.58
2023-04-16T00:26:18.610Z,94.68
2023-04-16T00:27:18.668Z,94.68
2023-04-16T00:28:18.634Z,94.37
2023-04-16T00:29:18.617Z,94.58
2023-04-16T00:30:18.585Z,94.68
2023-04-16T00:31:18.642Z,94.68
2023-04-16T00:32:18.597Z,94.78
2023-04-16T00:33:18.602Z,94.68
2023-04-16T00:34:18.526Z,94.78
2023-04-16T00:35:18.569Z,94.68
2023-04-16T00:36:18.540Z,94.58
2023-04-16T00:37:18.544Z,94.48
2023-04-16T00:38:18.492Z,94.48
2023-04-16T00:39:18.515Z,94.37
2023-04-16T00:40:18.483Z,94.37
2023-04-16T00:41:18.491Z,94.27
2023-04-16T00:42:18.444Z,94.27
2023-04-16T00:43:18.454Z,94.37
2023-04-16T00:44:18.433Z,94.48
2023-04-16T00:45:18.439Z,94.68
2023-04-16T00:46:18.433Z,94.68
2023-04-16T00:47:18.432Z,94.37
2023-04-16T00:48:19.408Z,94.48
2023-04-16T00:49:18.414Z,94.58
2023-04-16T00:50:18.359Z,94.58
2023-04-16T00:51:18.374Z,94.37
2023-04-16T00:52:18.336Z,94.48
2023-04-16T00:53:18.353Z,94.48
2023-04-16T00:54:18.305Z,94.48
2023-04-16T00:55:18.315Z,94.48
2023-04-16T00:56:18.305Z,94.48
2023-04-16T00:57:18.300Z,94.37
2023-04-16T00:58:18.270Z,94.27
2023-04-16T00:59:18.279Z,94.27
2023-04-16T01:00:29.442Z,94.27
2023-04-16T01:01:18.360Z,94.07
2023-04-16T01:02:18.362Z,94.07
2023-04-16T01:03:18.370Z,94.07
2023-04-16T01:04:18.355Z,94.07
2023-04-16T01:05:18.258Z,94.17
2023-04-16T01:06:18.180Z,94.17
2023-04-16T01:07:18.179Z,94.17
2023-04-16T01:08:18.208Z,94.17
2023-04-16T01:09:18.137Z,94.07
2023-04-16T01:10:18.863Z,94.27
2023-04-16T01:11:18.193Z,94.37
2023-04-16T01:12:18.137Z,94.27
2023-04-16T01:13:18.102Z,94.37
2023-04-16T01:14:18.119Z,94.48
2023-04-16T01:15:18.096Z,94.58
2023-04-16T01:16:18.173Z,94.58
2023-04-16T01:17:18.056Z,94.58
2023-04-16T01:18:18.097Z,94.68
2023-04-16T01:19:18.046Z,94.68
2023-04-16T01:20:18.055Z,94.68
2023-04-16T01:21:18.972Z,94.48
2023-04-16T01:22:18.028Z,94.48
2023-04-16T01:23:18.020Z,94.48
2023-04-16T01:24:18.068Z,94.48
2023-04-16T01:25:17.980Z,94.58
2023-04-16T01:26:17.971Z,94.58
2023-04-16T01:27:17.961Z,94.48
2023-04-16T01:28:18.001Z,94.48
2023-04-16T01:29:17.911Z,94.58
2023-04-16T01:30:17.966Z,94.58
2023-04-16T01:31:17.911Z,94.58
2023-04-16T01:32:18.010Z,94.58
2023-04-16T01:33:17.895Z,94.37
2023-04-16T01:34:17.882Z,94.37
2023-04-16T01:35:17.904Z,94.48
2023-04-16T01:36:17.864Z,94.48
2023-04-16T01:37:17.855Z,94.58
2023-04-16T01:38:17.836Z,94.48
2023-04-16T01:39:17.819Z,94.48
2023-04-16T01:40:17.839Z,94.58
2023-04-16T01:41:17.801Z,94.68
2023-04-16T01:42:17.802Z,94.68
2023-04-16T01:43:17.785Z,94.78
2023-04-16T01:44:17.783Z,94.68
2023-04-16T01:45:17.732Z,94.68
2023-04-16T01:46:17.787Z,94.68
2023-04-16T01:47:17.749Z,94.68
2023-04-16T01:48:17.750Z,94.68
2023-04-16T01:49:17.703Z,94.58
2023-04-16T01:50:17.732Z,94.37
2023-04-16T01:51:17.680Z,94.17
2023-04-16T01:52:17.694Z,94.07
2023-04-16T01:53:17.670Z,94.17
2023-04-16T01:54:17.674Z,94.17
2023-04-16T01:55:17.666Z,94.37
2023-04-16T01:56:17.649Z,94.37
2023-04-16T01:57:17.601Z,94.37
2023-04-16T01:58:18.593Z,94.37
2023-04-16T01:59:17.575Z,94.48
2023-04-16T02:00:17.633Z,94.58
2023-04-16T02:01:17.707Z,94.73
2023-04-16T02:02:17.666Z,94.83
2023-04-16T02:03:17.735Z,94.83
2023-04-16T02:04:17.584Z,94.78
2023-04-16T02:05:17.541Z,94.78
2023-04-16T02:06:17.549Z,94.78
2023-04-16T02:07:17.491Z,94.89
2023-04-16T02:08:17.551Z,94.78
2023-04-16T02:09:17.555Z,94.89
2023-04-16T02:10:17.507Z,94.89
2023-04-16T02:11:17.464Z,94.99
2023-04-16T02:12:17.458Z,94.89
2023-04-16T02:13:17.461Z,94.89
2023-04-16T02:14:17.424Z,94.99
2023-04-16T02:15:17.415Z,95.09
2023-04-16T02:16:17.448Z,95.09
2023-04-16T02:17:17.385Z,95.09
2023-04-16T02:18:17.416Z,95.29
2023-04-16T02:19:17.362Z,95.40
2023-04-16T02:20:17.370Z,95.40
2023-04-16T02:21:17.351Z,95.50
2023-04-16T02:22:17.366Z,95.50
2023-04-16T02:23:17.323Z,95.50
2023-04-16T02:24:17.328Z,95.54
2023-04-16T02:25:17.314Z,95.75
2023-04-16T02:26:17.313Z,95.95
2023-04-16T02:27:17.259Z,95.95
2023-04-16T02:28:17.301Z,95.86
2023-04-16T02:29:17.236Z,95.75
2023-04-16T02:30:17.291Z,95.86
2023-04-16T02:31:17.256Z,95.95
2023-04-16T02:32:17.274Z,96.06
2023-04-16T02:33:17.195Z,96.16
2023-04-16T02:34:17.214Z,96.16
2023-04-16T02:35:17.165Z,96.06
2023-04-16T02:36:17.212Z,96.16
2023-04-16T02:37:17.149Z,96.06
2023-04-16T02:38:17.168Z,96.06
2023-04-16T02:39:17.118Z,95.95
2023-04-16T02:40:17.170Z,96.16
2023-04-16T02:41:17.089Z,96.16
2023-04-16T02:42:17.114Z,96.26
2023-04-16T02:43:17.076Z,96.26
2023-04-16T02:44:17.130Z,96.16
2023-04-16T02:45:17.094Z,96.16
2023-04-16T02:46:17.115Z,96.16
2023-04-16T02:47:17.119Z,96.26
2023-04-16T02:48:17.051Z,96.26
2023-04-16T02:49:17.023Z,96.37
2023-04-16T02:50:17.060Z,96.57
2023-04-16T02:51:16.993Z,96.47
2023-04-16T02:52:17.030Z,96.57
2023-04-16T02:53:16.989Z,96.57
2023-04-16T02:54:16.982Z,96.47
2023-04-16T02:55:16.956Z,96.47
2023-04-16T02:56:16.961Z,96.37
2023-04-16T02:57:16.943Z,96.37
2023-04-16T02:58:16.996Z,96.47
2023-04-16T02:59:16.910Z,96.37
2023-04-16T03:00:16.929Z,96.47
2023-04-16T03:01:16.935Z,96.47
2023-04-16T03:02:16.984Z,96.37
2023-04-16T03:03:16.890Z,96.37
2023-04-16T03:04:16.900Z,96.26
2023-04-16T03:05:16.882Z,96.26
2023-04-16T03:06:16.849Z,96.06
2023-04-16T03:07:16.850Z,96.06
2023-04-16T03:08:16.857Z,96.16
2023-04-16T03:09:16.803Z,96.16
2023-04-16T03:10:16.813Z,96.06
2023-04-16T03:11:16.797Z,96.06
2023-04-16T03:12:16.774Z,96.06
2023-04-16T03:13:16.771Z,96.16
2023-04-16T03:14:16.754Z,96.06
2023-04-16T03:15:16.724Z,95.95
2023-04-16T03:16:16.879Z,96.16
2023-04-16T03:17:16.769Z,96.16
2023-04-16T03:18:16.721Z,96.16
2023-04-16T03:19:16.685Z,96.16
2023-04-16T03:20:16.698Z,96.16
2023-04-16T03:21:16.687Z,96.06
2023-04-16T03:22:16.661Z,96.16
2023-04-16T03:23:16.691Z,96.26
2023-04-16T03:24:16.644Z,96.16
2023-04-16T03:25:16.629Z,96.16
2023-04-16T03:26:16.628Z,96.06
2023-04-16T03:27:16.592Z,96.06
2023-04-16T03:28:16.628Z,95.95
2023-04-16T03:29:16.572Z,95.95
2023-04-16T03:30:16.597Z,95.95
2023-04-16T03:31:16.602Z,96.06
2023-04-16T03:32:16.612Z,96.06
2023-04-16T03:33:16.527Z,96.06
2023-04-16T03:34:16.558Z,96.06
2023-04-16T03:35:16.495Z,96.06
2023-04-16T03:36:16.525Z,96.06
2023-04-16T03:37:16.502Z,96.06
2023-04-16T03:38:16.500Z,96.06
2023-04-16T03:39:16.468Z,96.06
2023-04-16T03:40:16.476Z,96.06
2023-04-16T03:41:16.425Z,96.16
2023-04-16T03:42:16.462Z,96.26
2023-04-16T03:43:16.436Z,96.26
2023-04-16T03:44:16.439Z,96.26
2023-04-16T03:45:16.395Z,96.16
2023-04-16T03:46:16.423Z,96.16
2023-04-16T03:47:16.462Z,96.16
2023-04-16T03:48:16.373Z,96.06
2023-04-16T03:49:16.330Z,96.06
2023-04-16T03:50:16.366Z,96.16
2023-04-16T03:51:16.337Z,95.95
2023-04-16T03:52:16.345Z,95.86
2023-04-16T03:53:16.312Z,95.86
2023-04-16T03:54:17.274Z,95.75
2023-04-16T03:55:16.298Z,95.75
2023-04-16T03:56:16.308Z,95.75
2023-04-16T03:57:16.248Z,95.75
2023-04-16T03:58:16.288Z,95.86
2023-04-16T03:59:16.252Z,95.75
2023-04-16T04:00:16.268Z,95.65
2023-04-16T04:01:16.210Z,95.65
2023-04-16T04:02:16.283Z,95.86
2023-04-16T04:03:16.437Z,95.86
2023-04-16T04:04:16.265Z,95.95
2023-04-16T04:05:16.157Z,95.95
2023-04-16T04:06:16.175Z,95.86
2023-04-16T04:07:16.170Z,95.44
2023-04-16T04:08:16.155Z,95.34
2023-04-16T04:09:16.113Z,95.24
2023-04-16T04:10:16.148Z,95.14
2023-04-16T04:11:16.096Z,95.03
2023-04-16T04:12:16.117Z,94.93
2023-04-16T04:13:16.069Z,95.03
2023-04-16T04:14:16.097Z,95.03
2023-04-16T04:15:16.067Z,95.14
2023-04-16T04:16:16.109Z,95.14
2023-04-16T04:17:16.019Z,95.14
2023-04-16T04:18:16.074Z,95.14
2023-04-16T04:19:15.996Z,95.14
2023-04-16T04:20:16.040Z,95.03
2023-04-16T04:21:15.981Z,94.93
2023-04-16T04:22:15.989Z,94.93
2023-04-16T04:23:16.010Z,94.83
2023-04-16T04:24:15.969Z,94.62
2023-04-16T04:25:16.902Z,94.62
2023-04-16T04:26:16.005Z,94.62
2023-04-16T04:27:15.913Z,94.62
2023-04-16T04:28:16.127Z,94.58
2023-04-16T04:29:15.910Z,94.48
2023-04-16T04:30:15.939Z,94.37
2023-04-16T04:31:15.898Z,94.37
2023-04-16T04:32:15.939Z,94.37
2023-04-16T04:33:15.858Z,94.52
2023-04-16T04:34:15.853Z,94.52
2023-04-16T04:35:15.840Z,94.62
2023-04-16T04:36:15.827Z,94.73
2023-04-16T04:37:15.837Z,94.73
2023-04-16T04:38:16.289Z,94.73
2023-04-16T04:39:15.803Z,94.73
2023-04-16T04:40:15.807Z,94.83
2023-04-16T04:41:15.798Z,94.83
2023-04-16T04:42:15.791Z,94.83
2023-04-16T04:43:15.748Z,94.83
2023-04-16T04:44:15.746Z,94.83
2023-04-16T04:45:15.716Z,94.83
2023-04-16T04:46:15.729Z,94.83
2023-04-16T04:47:15.701Z,94.73
2023-04-16T04:48:15.718Z,94.62
2023-04-16T04:49:15.650Z,94.62
2023-04-16T04:50:15.686Z,94.73
2023-04-16T04:51:15.651Z,94.83
2023-04-16T04:52:16.631Z,94.93
2023-04-16T04:53:16.586Z,94.93
2023-04-16T04:54:15.647Z,95.03
2023-04-16T04:55:15.616Z,94.93
2023-04-16T04:56:15.603Z,94.83
2023-04-16T04:57:15.575Z,94.83
2023-04-16T04:58:15.593Z,94.42
2023-04-16T04:59:15.575Z,94.32
2023-04-16T05:00:15.616Z,94.46
2023-04-16T05:01:15.559Z,94.56
2023-04-16T05:02:15.559Z,94.26
2023-04-16T05:03:15.613Z,94.26
2023-04-16T05:04:15.563Z,94.15
2023-04-16T05:05:15.590Z,94.05
2023-04-16T05:06:15.491Z,94.05
2023-04-16T05:07:15.469Z,93.95
2023-04-16T05:08:15.496Z,93.74
2023-04-16T05:09:15.445Z,93.95
2023-04-16T05:10:15.456Z,94.05
2023-04-16T05:11:15.417Z,93.95
2023-04-16T05:12:15.471Z,93.95
2023-04-16T05:13:15.416Z,93.85
2023-04-16T05:14:15.428Z,93.74
2023-04-16T05:15:16.860Z,93.33
2023-04-16T05:16:15.496Z,93.44
2023-04-16T05:17:15.356Z,93.44
2023-04-16T05:18:15.384Z,93.54
2023-04-16T05:19:15.339Z,93.54
2023-04-16T05:20:15.358Z,93.54
2023-04-16T05:21:15.301Z,93.44
2023-04-16T05:22:15.332Z,92.93
2023-04-16T05:23:15.326Z,92.72
2023-04-16T05:24:15.300Z,92.61
2023-04-16T05:25:15.278Z,92.61
2023-04-16T05:26:15.245Z,92.61
2023-04-16T05:27:15.286Z,92.61
2023-04-16T05:28:15.255Z,92.51
2023-04-16T05:29:15.236Z,92.10
2023-04-16T05:30:15.197Z,92.31
2023-04-16T05:31:15.261Z,92.31
2023-04-16T05:32:15.213Z,92.21
2023-04-16T05:33:15.207Z,92.31
2023-04-16T05:34:15.193Z,92.21
2023-04-16T05:35:17.299Z,92.41
2023-04-16T05:36:15.135Z,92.51
2023-04-16T05:37:15.152Z,92.31
2023-04-16T05:38:15.120Z,92.00
2023-04-16T05:39:15.139Z,91.80
2023-04-16T05:40:15.085Z,91.69
2023-04-16T05:41:15.123Z,91.69
2023-04-16T05:42:16.029Z,91.69
2023-04-16T05:43:15.105Z,92.00
2023-04-16T05:44:15.045Z,92.21
2023-04-16T05:45:15.082Z,92.00
2023-04-16T05:46:15.048Z,92.21
2023-04-16T05:47:15.073Z,92.31
2023-04-16T05:48:14.992Z,92.10
2023-04-16T05:49:15.030Z,91.90
2023-04-16T05:50:14.977Z,92.21
2023-04-16T05:51:15.009Z,92.41
2023-04-16T05:52:14.957Z,92.51
2023-04-16T05:53:14.988Z,92.31
2023-04-16T05:54:14.935Z,92.31
2023-04-16T05:55:14.945Z,92.31
2023-04-16T05:56:14.917Z,92.31
2023-04-16T05:57:14.932Z,92.51
2023-04-16T05:58:14.921Z,92.41
2023-04-16T05:59:14.897Z,92.31
2023-04-16T06:00:15.832Z,92.41
2023-04-16T06:01:14.875Z,92.41
2023-04-16T06:02:14.946Z,92.51
2023-04-16T06:03:15.044Z,92.61
2023-04-16T06:04:14.989Z,92.61
2023-04-16T06:05:14.844Z,92.61
2023-04-16T06:06:14.825Z,92.51
2023-04-16T06:07:14.810Z,92.51
2023-04-16T06:08:14.872Z,92.51
2023-04-16T06:09:14.836Z,92.51
2023-04-16T06:10:14.743Z,92.51
2023-04-16T06:11:14.777Z,92.51
2023-04-16T06:12:14.754Z,92.72
2023-04-16T06:13:14.736Z,92.93
2023-04-16T06:14:14.719Z,92.93
2023-04-16T06:15:14.736Z,92.93
2023-04-16T06:16:14.718Z,93.02
2023-04-16T06:17:14.728Z,92.82
2023-04-16T06:18:14.740Z,92.93
2023-04-16T06:19:14.679Z,92.82
2023-04-16T06:20:14.636Z,92.72
2023-04-16T06:21:14.651Z,93.07
2023-04-16T06:22:14.645Z,93.27
2023-04-16T06:23:14.649Z,93.38
2023-04-16T06:24:14.636Z,93.27
2023-04-16T06:25:16.815Z,93.17
2023-04-16T06:26:14.581Z,93.27
2023-04-16T06:27:14.624Z,93.27
2023-04-16T06:28:14.566Z,93.27
2023-04-16T06:29:14.593Z,93.27
2023-04-16T06:30:14.550Z,93.17
2023-04-16T06:31:14.605Z,93.17
2023-04-16T06:32:15.454Z,92.97
2023-04-16T06:33:14.515Z,92.93
2023-04-16T06:34:14.498Z,93.02
2023-04-16T06:35:14.535Z,92.93
2023-04-16T06:36:14.457Z,92.82
2023-04-16T06:37:14.473Z,92.72
2023-04-16T06:38:14.468Z,92.72
2023-04-16T06:39:14.435Z,92.61
2023-04-16T06:40:14.444Z,92.61
2023-04-16T06:41:14.432Z,92.72
2023-04-16T06:42:14.434Z,92.82
2023-04-16T06:43:14.421Z,92.93
2023-04-16T06:44:14.388Z,93.07
2023-04-16T06:45:14.397Z,93.13
2023-04-16T06:46:15.088Z,93.07
2023-04-16T06:47:14.389Z,93.27
2023-04-16T06:48:14.314Z,93.27
2023-04-16T06:49:14.331Z,93.17
2023-04-16T06:50:14.362Z,93.27
2023-04-16T06:51:14.336Z,93.59
2023-04-16T06:52:14.300Z,93.93
2023-04-16T06:53:14.314Z,93.93
2023-04-16T06:54:14.257Z,94.04
2023-04-16T06:55:14.293Z,94.24
2023-04-16T06:56:14.230Z,94.34
2023-04-16T06:57:14.252Z,94.45
2023-04-16T06:58:14.237Z,94.45
2023-04-16T06:59:14.224Z,94.55
2023-04-16T07:00:14.263Z,94.65
2023-04-16T07:01:14.254Z,94.85
2023-04-16T07:02:14.338Z,94.85
2023-04-16T07:03:14.306Z,94.76
2023-04-16T07:04:14.213Z,94.76
2023-04-16T07:05:14.178Z,94.76
2023-04-16T07:06:14.120Z,94.65
2023-04-16T07:07:14.139Z,94.55
2023-04-16T07:08:14.102Z,94.55
2023-04-16T07:09:14.167Z,94.61
2023-04-16T07:10:14.073Z,94.40
2023-04-16T07:11:14.122Z,94.20
2023-04-16T07:12:14.057Z,94.24
2023-04-16T07:13:14.068Z,94.34
2023-04-16T07:14:14.037Z,94.55
2023-04-16T07:15:14.063Z,94.55
2023-04-16T07:16:14.039Z,94.55
2023-04-16T07:17:14.006Z,94.65
2023-04-16T07:18:14.197Z,94.65
2023-04-16T07:19:14.019Z,94.55
2023-04-16T07:20:13.969Z,94.45
2023-04-16T07:21:13.958Z,94.34
2023-04-16T07:22:13.951Z,94.34
2023-04-16T07:23:13.960Z,94.45
2023-04-16T07:24:13.920Z,94.45
2023-04-16T07:25:13.920Z,94.34
2023-04-16T07:26:13.921Z,94.45
2023-04-16T07:27:13.899Z,94.45
2023-04-16T07:28:13.855Z,94.45
2023-04-16T07:29:13.873Z,94.55
2023-04-16T07:30:13.865Z,94.51
2023-04-16T07:31:13.866Z,94.45
2023-04-16T07:32:15.406Z,94.34
2023-04-16T07:33:13.847Z,94.45
2023-04-16T07:34:13.793Z,94.55
2023-04-16T07:35:13.898Z,94.65
2023-04-16T07:36:13.762Z,94.55
2023-04-16T07:37:13.838Z,94.55
2023-04-16T07:38:13.742Z,94.76
2023-04-16T07:39:13.759Z,94.96
2023-04-16T07:40:13.743Z,95.06
2023-04-16T07:41:13.802Z,95.17
2023-04-16T07:42:13.722Z,95.27
2023-04-16T07:43:13.716Z,95.27
2023-04-16T07:44:13.698Z,95.27
2023-04-16T07:45:13.722Z,95.27
2023-04-16T07:46:13.761Z,95.17
2023-04-16T07:47:13.704Z,95.21
2023-04-16T07:48:13.650Z,95.10
2023-04-16T07:49:13.680Z,95.21
2023-04-16T07:50:13.637Z,95.42
2023-04-16T07:51:13.633Z,95.52
2023-04-16T07:52:13.594Z,95.72
2023-04-16T07:53:13.617Z,95.72
2023-04-16T07:54:13.615Z,95.83
2023-04-16T07:55:13.595Z,95.83
2023-04-16T07:56:13.586Z,95.83
2023-04-16T07:57:13.558Z,95.72
2023-04-16T07:58:13.537Z,96.03
2023-04-16T07:59:22.902Z,96.28
2023-04-16T08:00:14.511Z,96.59
2023-04-16T08:01:13.531Z,96.80
2023-04-16T08:02:13.658Z,97.00
2023-04-16T08:03:13.722Z,97.10
2023-04-16T08:04:13.617Z,97.10
2023-04-16T08:05:13.596Z,96.90
2023-04-16T08:06:13.485Z,96.90
2023-04-16T08:07:13.524Z,96.69
2023-04-16T08:08:13.471Z,96.80
2023-04-16T08:09:13.497Z,96.80
2023-04-16T08:10:13.441Z,96.69
2023-04-16T08:11:13.471Z,96.48
2023-04-16T08:12:13.469Z,96.39
2023-04-16T08:13:13.383Z,96.48
2023-04-16T08:14:13.340Z,96.44
2023-04-16T08:15:13.347Z,96.23
2023-04-16T08:16:13.383Z,96.28
2023-04-16T08:17:13.367Z,96.28
2023-04-16T08:18:13.299Z,96.48
2023-04-16T08:19:13.468Z,96.69
2023-04-16T08:20:16.363Z,96.59
2023-04-16T08:21:13.309Z,96.59
2023-04-16T08:22:13.288Z,96.59
2023-04-16T08:23:13.273Z,96.59
2023-04-16T08:24:13.240Z,96.48
2023-04-16T08:25:13.258Z,96.39
2023-04-16T08:26:13.240Z,96.48
2023-04-16T08:27:19.128Z,96.48
2023-04-16T08:28:14.198Z,96.59
2023-04-16T08:29:13.353Z,96.59
2023-04-16T08:30:13.205Z,96.59
2023-04-16T08:31:13.261Z,96.48
2023-04-16T08:32:13.151Z,96.39
2023-04-16T08:33:13.212Z,96.23
2023-04-16T08:34:13.141Z,96.14
2023-04-16T08:35:13.157Z,96.03
2023-04-16T08:36:13.139Z,95.72
2023-04-16T08:37:13.107Z,95.62
2023-04-16T08:38:13.088Z,95.52
2023-04-16T08:39:13.382Z,95.72
2023-04-16T08:40:14.558Z,95.72
2023-04-16T08:41:13.113Z,95.52
2023-04-16T08:42:13.052Z,95.56
2023-04-16T08:43:13.049Z,95.97
2023-04-16T08:44:13.050Z,96.28
2023-04-16T08:45:13.026Z,96.28
2023-04-16T08:46:13.110Z,96.39
2023-04-16T08:47:13.014Z,96.23
2023-04-16T08:48:12.964Z,96.23
2023-04-16T08:49:12.980Z,95.93
2023-04-16T08:50:12.950Z,95.62
2023-04-16T08:51:13.011Z,95.62
2023-04-16T08:52:12.927Z,95.83
2023-04-16T08:53:12.960Z,95.83
2023-04-16T08:54:12.915Z,95.62
2023-04-16T08:55:12.954Z,95.31
2023-04-16T08:56:12.899Z,95.10
2023-04-16T08:57:12.904Z,95.01
2023-04-16T08:58:12.858Z,95.10
2023-04-16T08:59:12.902Z,95.10
2023-04-16T09:00:12.866Z,94.80
2023-04-16T09:01:12.854Z,94.80
2023-04-16T09:02:12.932Z,94.39
2023-04-16T09:03:12.919Z,94.49
2023-04-16T09:04:12.894Z,94.34
2023-04-16T09:05:12.787Z,94.24
2023-04-16T09:06:12.786Z,94.14
2023-04-16T09:07:12.812Z,94.14
2023-04-16T09:08:12.745Z,93.99
2023-04-16T09:09:12.758Z,93.38
2023-04-16T09:10:13.672Z,93.38
2023-04-16T09:11:12.773Z,93.48
2023-04-16T09:12:12.700Z,93.27
2023-04-16T09:13:12.719Z,93.17
2023-04-16T09:14:12.667Z,92.93
2023-04-16T09:15:12.691Z,92.41
2023-04-16T09:16:12.710Z,92.21
2023-04-16T09:17:12.664Z,92.10
2023-04-16T09:18:12.628Z,91.80
2023-04-16T09:19:12.710Z,91.38
2023-04-16T09:20:14.586Z,91.69
2023-04-16T09:24:10.417Z,91.90
2023-04-16T09:25:08.894Z,92.41
2023-04-16T09:26:08.847Z,92.51
2023-04-16T09:27:08.876Z,92.10
2023-04-16T09:28:08.850Z,91.90
2023-04-16T09:29:09.007Z,91.69
2023-04-16T09:30:08.839Z,91.28
2023-04-16T09:31:08.878Z,91.38
2023-04-16T09:32:16.475Z,91.65
2023-04-16T09:33:08.832Z,91.55
2023-04-16T09:34:08.809Z,91.03
2023-04-16T09:35:08.817Z,90.83
2023-04-16T09:36:08.781Z,91.03
2023-04-16T09:37:08.787Z,90.83
2023-04-16T09:38:08.767Z,90.83
2023-04-16T09:39:08.852Z,90.93
2023-04-16T09:40:08.735Z,91.14
2023-04-16T09:41:08.746Z,90.73
2023-04-16T09:42:08.692Z,90.11
2023-04-16T09:43:08.776Z,90.11
2023-04-16T09:44:08.677Z,89.81
2023-04-16T09:45:08.713Z,89.36
2023-04-16T09:46:08.779Z,89.36
2023-04-16T09:47:08.686Z,89.25
2023-04-16T09:48:08.633Z,89.36
2023-04-16T09:49:09.062Z,89.45
2023-04-16T09:50:08.660Z,89.56
2023-04-16T09:51:08.715Z,89.51
2023-04-16T09:52:08.669Z,89.42
2023-04-16T09:53:08.616Z,89.21
2023-04-16T09:54:08.585Z,89.04
2023-04-16T09:55:08.581Z,89.56
2023-04-16T09:56:08.597Z,89.97
2023-04-16T09:57:08.606Z,89.97
2023-04-16T09:58:08.529Z,89.76
2023-04-16T09:59:08.795Z,89.97
2023-04-16T10:00:08.567Z,90.17
2023-04-16T10:01:08.554Z,90.17
2023-04-16T10:02:14.375Z,90.17
2023-04-16T10:03:09.587Z,89.51
2023-04-16T10:04:08.591Z,89.51
2023-04-16T10:05:08.510Z,89.42
2023-04-16T10:06:08.460Z,89.31
2023-04-16T10:07:08.460Z,89.00
2023-04-16T10:08:08.470Z,88.49
2023-04-16T10:09:08.668Z,88.59
2023-04-16T10:10:08.414Z,88.39
2023-04-16T10:11:08.421Z,88.24
2023-04-16T10:12:08.419Z,88.24
2023-04-16T10:13:08.424Z,88.14
2023-04-16T10:14:08.417Z,87.94
2023-04-16T10:15:08.391Z,87.73
2023-04-16T10:16:08.343Z,87.43
2023-04-16T10:17:08.594Z,87.53
2023-04-16T10:18:08.430Z,87.43
2023-04-16T10:19:08.600Z,87.32
2023-04-16T10:20:08.284Z,87.29
2023-04-16T10:21:08.320Z,87.18
2023-04-16T10:22:08.274Z,87.29
2023-04-16T10:23:08.317Z,87.49
2023-04-16T10:24:08.316Z,87.08
2023-04-16T10:25:08.259Z,86.88
2023-04-16T10:26:08.215Z,87.02
2023-04-16T10:27:08.374Z,87.22
2023-04-16T10:28:08.255Z,87.53
2023-04-16T10:29:08.432Z,87.94
2023-04-16T10:30:08.225Z,87.59
2023-04-16T10:31:08.570Z,87.43
2023-04-16T10:32:08.245Z,87.53
2023-04-16T10:33:08.234Z,87.63
2023-04-16T10:34:08.190Z,87.63
2023-04-16T10:35:08.458Z,87.53
2023-04-16T10:36:08.282Z,87.98
2023-04-16T10:37:08.151Z,88.29
2023-04-16T10:38:08.379Z,88.56
2023-04-16T10:39:08.303Z,88.45
2023-04-16T10:40:08.070Z,88.24
2023-04-16T10:41:08.105Z,88.35
2023-04-16T10:42:08.083Z,88.35
2023-04-16T10:43:08.074Z,88.59
2023-04-16T10:44:08.039Z,89.21
2023-04-16T10:45:08.051Z,89.72
2023-04-16T10:46:08.028Z,89.83
2023-04-16T10:47:08.021Z,89.72
2023-04-16T10:48:07.994Z,89.72
2023-04-16T10:49:08.227Z,89.83
2023-04-16T10:50:07.992Z,89.51
2023-04-16T10:51:07.997Z,89.72
2023-04-16T10:52:07.954Z,89.62
2023-04-16T10:53:07.977Z,89.00
2023-04-16T10:54:07.927Z,89.00
2023-04-16T10:55:08.017Z,89.21
2023-04-16T10:56:07.930Z,88.90
2023-04-16T10:57:07.953Z,89.11
2023-04-16T10:58:07.920Z,88.70
2023-04-16T10:59:08.071Z,89.00
2023-04-16T11:00:07.859Z,89.31
2023-04-16T11:01:07.876Z,89.00
2023-04-16T11:02:08.308Z,89.00
2023-04-16T11:03:08.092Z,88.59
2023-04-16T11:04:08.024Z,88.59
2023-04-16T11:05:09.304Z,88.90
2023-04-16T11:06:09.279Z,88.84
2023-04-16T11:07:07.865Z,89.36
2023-04-16T11:08:07.777Z,89.56
2023-04-16T11:09:07.956Z,89.56
2023-04-16T11:10:07.758Z,89.56
2023-04-16T11:11:07.812Z,89.66
2023-04-16T11:12:07.929Z,89.83
2023-04-16T11:13:07.809Z,89.62
2023-04-16T11:14:07.730Z,89.62
2023-04-16T11:15:07.754Z,89.42
2023-04-16T11:16:07.839Z,89.31
2023-04-16T11:17:07.717Z,89.31
2023-04-16T11:18:09.127Z,88.80
2023-04-16T11:19:08.012Z,88.80
2023-04-16T11:20:19.443Z,88.70
2023-04-16T11:21:08.684Z,88.70
2023-04-16T11:22:07.658Z,88.80
2023-04-16T11:23:07.645Z,89.00
2023-04-16T11:24:07.607Z,89.21
2023-04-16T11:25:07.607Z,89.11
2023-04-16T11:26:07.548Z,89.31
2023-04-16T11:27:07.596Z,89.11
2023-04-16T11:28:07.604Z,88.80
2023-04-16T11:29:07.580Z,88.49
2023-04-16T11:30:07.532Z,88.39
2023-04-16T11:31:07.662Z,88.18
2023-04-16T11:32:07.595Z,88.18
2023-04-16T11:33:07.584Z,88.59
2023-04-16T11:34:07.482Z,88.80
2023-04-16T11:35:08.266Z,88.59
2023-04-16T11:36:07.567Z,88.70
2023-04-16T11:37:07.566Z,88.59
2023-04-16T11:38:07.663Z,88.49
2023-04-16T11:39:07.551Z,88.49
2023-04-16T11:40:07.549Z,88.90
2023-04-16T11:41:07.485Z,89.11
2023-04-16T11:42:07.413Z,89.31
2023-04-16T11:43:07.415Z,89.11
2023-04-16T11:44:07.445Z,89.00
2023-04-16T11:45:07.429Z,89.31
2023-04-16T11:46:16.562Z,89.21
2023-04-16T11:47:08.413Z,89.11
2023-04-16T11:48:09.875Z,89.21
2023-04-16T11:49:07.455Z,89.21
2023-04-16T11:50:07.330Z,89.42
2023-04-16T11:51:07.468Z,89.51
2023-04-16T11:52:07.346Z,89.00
2023-04-16T11:53:07.345Z,89.21
2023-04-16T11:54:09.125Z,89.17
2023-04-16T11:55:07.298Z,88.76
2023-04-16T11:56:07.281Z,88.65
2023-04-16T11:57:07.298Z,88.76
2023-04-16T11:58:07.266Z,88.76
2023-04-16T11:59:07.382Z,88.65
2023-04-16T12:00:09.195Z,88.14
2023-04-16T12:01:07.288Z,88.24
2023-04-16T12:02:07.230Z,88.65
2023-04-16T12:03:07.358Z,88.76
2023-04-16T12:04:07.523Z,88.65
2023-04-16T12:05:07.378Z,89.21
2023-04-16T12:06:07.154Z,89.62
2023-04-16T12:07:08.643Z,89.58
2023-04-16T12:08:07.219Z,89.21
2023-04-16T12:09:07.290Z,89.47
2023-04-16T12:10:07.106Z,89.27
2023-04-16T12:11:07.114Z,89.00
2023-04-16T12:12:07.170Z,88.86
2023-04-16T12:13:07.142Z,88.86
2023-04-16T12:14:07.128Z,88.76
2023-04-16T12:15:07.090Z,88.35
2023-04-16T12:16:07.174Z,88.14
2023-04-16T12:17:07.092Z,87.70
2023-04-16T12:18:07.125Z,87.70
2023-04-16T12:19:07.007Z,87.79
2023-04-16T12:20:07.083Z,88.00
2023-04-16T12:21:06.984Z,88.00
2023-04-16T12:22:07.040Z,88.04
2023-04-16T12:23:06.983Z,88.10
2023-04-16T12:24:07.006Z,88.10
2023-04-16T12:25:06.951Z,88.20
2023-04-16T12:26:06.968Z,88.14
2023-04-16T12:27:08.376Z,88.35
2023-04-16T12:28:07.017Z,88.24
2023-04-16T12:29:06.995Z,88.24
2023-04-16T12:30:06.933Z,88.56
2023-04-16T12:31:07.010Z,88.65
2023-04-16T12:32:06.926Z,88.76
2023-04-16T12:33:06.935Z,89.06
2023-04-16T12:34:06.900Z,89.17
2023-04-16T12:35:06.835Z,89.17
2023-04-16T12:36:06.849Z,89.17
2023-04-16T12:37:06.815Z,89.27
2023-04-16T12:38:08.342Z,88.96
2023-04-16T12:39:06.855Z,89.17
2023-04-16T12:40:06.806Z,89.27
2023-04-16T12:41:06.768Z,89.06
2023-04-16T12:42:06.824Z,88.96
2023-04-16T12:43:06.777Z,88.96
2023-04-16T12:44:06.775Z,88.96
2023-04-16T12:45:06.977Z,89.06
2023-04-16T12:46:06.766Z,88.96
2023-04-16T12:47:06.726Z,88.96
2023-04-16T12:48:06.708Z,88.96
2023-04-16T12:49:06.698Z,88.76
2023-04-16T12:50:06.729Z,88.56
2023-04-16T12:51:06.682Z,88.76
2023-04-16T12:52:06.687Z,89.06
2023-04-16T12:53:06.671Z,89.06
2023-04-16T12:54:06.664Z,88.86
2023-04-16T12:55:06.640Z,88.76